sensor_id;sensor_type;location;lat;lon;timestamp;pressure;altitude;pressure_sealevel;temperature;humidity
12757;BME280;31601;48.042;12.240;2023-07-13T00:02:10;96135.38;;;21.72;73.74
12757;BME280;31601;48.042;12.240;2023-07-13T00:04:37;96118.03;;;21.69;73.88
12757;BME280;31601;48.042;12.240;2023-07-13T00:07:04;96109.59;;;21.50;74.87
12757;BME280;31601;48.042;12.240;2023-07-13T00:09:32;96098.47;;;21.58;73.78
12757;BME280;31601;48.042;12.240;2023-07-13T00:11:58;96093.06;;;21.53;74.04
12757;BME280;31601;48.042;12.240;2023-07-13T00:14:26;96091.75;;;21.56;73.44
12757;BME280;31601;48.042;12.240;2023-07-13T00:16:53;96096.81;;;21.52;73.63
12757;BME280;31601;48.042;12.240;2023-07-13T00:19:20;96106.94;;;21.50;73.30
12757;BME280;31601;48.042;12.240;2023-07-13T00:21:47;96106.09;;;21.44;73.40
12757;BME280;31601;48.042;12.240;2023-07-13T00:24:16;96096.00;;;21.52;73.50
12757;BME280;31601;48.042;12.240;2023-07-13T00:26:49;96098.06;;;21.07;74.92
12757;BME280;31601;48.042;12.240;2023-07-13T00:29:16;96105.59;;;21.15;74.79
12757;BME280;31601;48.042;12.240;2023-07-13T00:31:43;96101.84;;;21.16;74.90
12757;BME280;31601;48.042;12.240;2023-07-13T00:34:10;96109.94;;;21.26;74.66
12757;BME280;31601;48.042;12.240;2023-07-13T00:36:36;96104.97;;;21.08;75.87
12757;BME280;31601;48.042;12.240;2023-07-13T00:39:03;96107.84;;;20.96;76.15
12757;BME280;31601;48.042;12.240;2023-07-13T00:41:30;96108.59;;;20.91;76.42
12757;BME280;31601;48.042;12.240;2023-07-13T00:43:59;96117.13;;;20.93;76.29
12757;BME280;31601;48.042;12.240;2023-07-13T00:46:28;96113.78;;;20.76;77.29
12757;BME280;31601;48.042;12.240;2023-07-13T00:48:57;96126.63;;;20.84;77.32
12757;BME280;31601;48.042;12.240;2023-07-13T00:51:31;96121.97;;;20.47;78.73
12757;BME280;31601;48.042;12.240;2023-07-13T00:54:01;96123.91;;;20.30;78.46
12757;BME280;31601;48.042;12.240;2023-07-13T00:56:30;96119.56;;;20.24;79.71
12757;BME280;31601;48.042;12.240;2023-07-13T00:58:59;96123.81;;;20.25;79.38
12757;BME280;31601;48.042;12.240;2023-07-13T01:01:26;96121.78;;;20.32;79.04
12757;BME280;31601;48.042;12.240;2023-07-13T01:03:53;96120.47;;;20.56;78.64
12757;BME280;31601;48.042;12.240;2023-07-13T01:06:19;96120.41;;;20.73;77.76
12757;BME280;31601;48.042;12.240;2023-07-13T01:08:46;96131.56;;;20.70;78.01
12757;BME280;31601;48.042;12.240;2023-07-13T01:11:18;96125.94;;;20.67;77.66
12757;BME280;31601;48.042;12.240;2023-07-13T01:13:45;96119.00;;;20.66;78.13
12757;BME280;31601;48.042;12.240;2023-07-13T01:16:15;96115.97;;;20.84;77.37
12757;BME280;31601;48.042;12.240;2023-07-13T01:18:45;96108.34;;;20.93;77.06
12757;BME280;31601;48.042;12.240;2023-07-13T01:21:12;96104.09;;;20.97;77.31
12757;BME280;31601;48.042;12.240;2023-07-13T01:23:39;96103.59;;;21.00;77.20
12757;BME280;31601;48.042;12.240;2023-07-13T01:26:05;96099.34;;;21.04;76.94
12757;BME280;31601;48.042;12.240;2023-07-13T01:28:32;96105.53;;;21.10;76.81
12757;BME280;31601;48.042;12.240;2023-07-13T01:31:02;96107.09;;;21.06;76.60
12757;BME280;31601;48.042;12.240;2023-07-13T01:33:29;96106.81;;;21.02;75.97
12757;BME280;31601;48.042;12.240;2023-07-13T01:35:56;96111.41;;;21.07;75.85
12757;BME280;31601;48.042;12.240;2023-07-13T01:38:25;96107.50;;;20.92;75.75
12757;BME280;31601;48.042;12.240;2023-07-13T01:40:51;96101.66;;;20.96;75.81
12757;BME280;31601;48.042;12.240;2023-07-13T01:43:19;96107.91;;;21.06;75.46
12757;BME280;31601;48.042;12.240;2023-07-13T01:45:46;96104.06;;;20.92;75.57
12757;BME280;31601;48.042;12.240;2023-07-13T01:48:13;96109.28;;;20.82;76.05
12757;BME280;31601;48.042;12.240;2023-07-13T01:50:40;96100.53;;;20.86;75.89
12757;BME280;31601;48.042;12.240;2023-07-13T01:53:06;96105.31;;;20.84;75.88
12757;BME280;31601;48.042;12.240;2023-07-13T01:55:34;96104.69;;;20.77;75.75
12757;BME280;31601;48.042;12.240;2023-07-13T01:58:02;96100.59;;;20.91;75.60
12757;BME280;31601;48.042;12.240;2023-07-13T02:00:29;96101.38;;;20.92;75.47
12757;BME280;31601;48.042;12.240;2023-07-13T02:02:56;96108.63;;;20.97;75.62
12757;BME280;31601;48.042;12.240;2023-07-13T02:05:22;96116.91;;;21.00;75.33
12757;BME280;31601;48.042;12.240;2023-07-13T02:07:49;96122.94;;;20.85;75.30
12757;BME280;31601;48.042;12.240;2023-07-13T02:10:16;96117.63;;;20.90;75.11
12757;BME280;31601;48.042;12.240;2023-07-13T02:12:44;96116.03;;;20.89;74.96
12757;BME280;31601;48.042;12.240;2023-07-13T02:15:11;96114.72;;;20.92;75.37
12757;BME280;31601;48.042;12.240;2023-07-13T02:17:37;96105.66;;;20.93;74.80
12757;BME280;31601;48.042;12.240;2023-07-13T02:20:07;96119.81;;;20.93;75.21
12757;BME280;31601;48.042;12.240;2023-07-13T02:22:34;96119.53;;;20.95;75.16
12757;BME280;31601;48.042;12.240;2023-07-13T02:25:01;96107.84;;;20.96;74.88
12757;BME280;31601;48.042;12.240;2023-07-13T02:27:27;96116.63;;;20.97;74.79
12757;BME280;31601;48.042;12.240;2023-07-13T02:29:55;96127.53;;;20.95;75.04
12757;BME280;31601;48.042;12.240;2023-07-13T02:32:22;96134.63;;;20.84;74.68
12757;BME280;31601;48.042;12.240;2023-07-13T02:34:50;96136.31;;;20.90;74.45
12757;BME280;31601;48.042;12.240;2023-07-13T02:37:16;96128.84;;;20.92;74.66
12757;BME280;31601;48.042;12.240;2023-07-13T02:39:43;96135.16;;;20.81;75.05
12757;BME280;31601;48.042;12.240;2023-07-13T02:42:09;96131.53;;;20.65;75.58
12757;BME280;31601;48.042;12.240;2023-07-13T02:44:35;96132.97;;;20.78;75.51
12757;BME280;31601;48.042;12.240;2023-07-13T02:47:03;96144.25;;;20.85;75.35
12757;BME280;31601;48.042;12.240;2023-07-13T02:49:30;96141.94;;;20.94;74.99
12757;BME280;31601;48.042;12.240;2023-07-13T02:51:57;96143.09;;;21.03;74.73
12757;BME280;31601;48.042;12.240;2023-07-13T02:54:23;96144.47;;;21.11;74.72
12757;BME280;31601;48.042;12.240;2023-07-13T02:56:50;96143.97;;;21.14;74.83
12757;BME280;31601;48.042;12.240;2023-07-13T02:59:16;96155.13;;;21.06;74.61
12757;BME280;31601;48.042;12.240;2023-07-13T03:01:42;96143.13;;;21.08;74.57
12757;BME280;31601;48.042;12.240;2023-07-13T03:04:10;96158.13;;;21.15;74.46
12757;BME280;31601;48.042;12.240;2023-07-13T03:06:37;96167.13;;;21.08;74.23
12757;BME280;31601;48.042;12.240;2023-07-13T03:09:03;96166.88;;;21.10;74.06
12757;BME280;31601;48.042;12.240;2023-07-13T03:11:30;96164.81;;;21.17;73.92
12757;BME280;31601;48.042;12.240;2023-07-13T03:13:57;96164.56;;;21.19;74.01
12757;BME280;31601;48.042;12.240;2023-07-13T03:16:24;96160.09;;;21.24;73.70
12757;BME280;31601;48.042;12.240;2023-07-13T03:18:50;96168.63;;;21.26;73.44
12757;BME280;31601;48.042;12.240;2023-07-13T03:21:18;96172.09;;;21.27;73.39
12757;BME280;31601;48.042;12.240;2023-07-13T03:23:44;96166.47;;;21.23;73.12
12757;BME280;31601;48.042;12.240;2023-07-13T03:26:14;96164.59;;;21.24;72.75
12757;BME280;31601;48.042;12.240;2023-07-13T03:28:41;96166.88;;;20.83;73.92
12757;BME280;31601;48.042;12.240;2023-07-13T03:31:10;96176.59;;;20.94;73.72
12757;BME280;31601;48.042;12.240;2023-07-13T03:33:36;96170.63;;;21.09;73.63
12757;BME280;31601;48.042;12.240;2023-07-13T03:36:03;96174.53;;;21.01;73.67
12757;BME280;31601;48.042;12.240;2023-07-13T03:38:32;96173.13;;;20.93;73.70
12757;BME280;31601;48.042;12.240;2023-07-13T03:40:59;96183.03;;;20.98;73.82
12757;BME280;31601;48.042;12.240;2023-07-13T03:43:26;96176.47;;;21.06;73.52
12757;BME280;31601;48.042;12.240;2023-07-13T03:45:52;96187.72;;;21.13;73.53
12757;BME280;31601;48.042;12.240;2023-07-13T03:48:19;96187.63;;;21.03;73.59
12757;BME280;31601;48.042;12.240;2023-07-13T03:50:46;96191.03;;;20.98;73.02
12757;BME280;31601;48.042;12.240;2023-07-13T03:53:14;96190.28;;;21.03;73.22
12757;BME280;31601;48.042;12.240;2023-07-13T03:55:42;96188.69;;;21.02;72.95
12757;BME280;31601;48.042;12.240;2023-07-13T03:58:27;96187.91;;;21.06;73.02
12757;BME280;31601;48.042;12.240;2023-07-13T04:00:54;96192.53;;;21.16;72.59
12757;BME280;31601;48.042;12.240;2023-07-13T04:03:21;96189.13;;;21.21;72.74
12757;BME280;31601;48.042;12.240;2023-07-13T04:05:48;96198.09;;;21.09;72.87
12757;BME280;31601;48.042;12.240;2023-07-13T04:08:14;96191.66;;;21.05;72.10
12757;BME280;31601;48.042;12.240;2023-07-13T04:10:42;96203.22;;;21.16;71.83
12757;BME280;31601;48.042;12.240;2023-07-13T04:13:09;96202.13;;;21.12;72.28
12757;BME280;31601;48.042;12.240;2023-07-13T04:15:35;96213.59;;;20.85;73.63
12757;BME280;31601;48.042;12.240;2023-07-13T04:18:02;96205.72;;;20.73;74.54
12757;BME280;31601;48.042;12.240;2023-07-13T04:20:29;96203.50;;;20.92;74.26
12757;BME280;31601;48.042;12.240;2023-07-13T04:22:55;96207.75;;;20.88;74.03
12757;BME280;31601;48.042;12.240;2023-07-13T04:25:22;96204.63;;;20.97;74.08
12757;BME280;31601;48.042;12.240;2023-07-13T04:27:50;96206.75;;;20.95;73.75
12757;BME280;31601;48.042;12.240;2023-07-13T04:30:17;96219.78;;;20.69;74.67
12757;BME280;31601;48.042;12.240;2023-07-13T04:32:43;96222.94;;;20.66;74.97
12757;BME280;31601;48.042;12.240;2023-07-13T04:35:10;96227.81;;;20.52;76.23
12757;BME280;31601;48.042;12.240;2023-07-13T04:37:36;96236.44;;;20.59;75.55
12757;BME280;31601;48.042;12.240;2023-07-13T04:40:03;96235.16;;;20.45;75.68
12757;BME280;31601;48.042;12.240;2023-07-13T04:42:30;96236.00;;;20.45;76.05
12757;BME280;31601;48.042;12.240;2023-07-13T04:44:57;96237.75;;;20.17;76.59
12757;BME280;31601;48.042;12.240;2023-07-13T04:47:24;96243.53;;;20.31;76.10
12757;BME280;31601;48.042;12.240;2023-07-13T04:49:50;96239.81;;;20.15;76.55
12757;BME280;31601;48.042;12.240;2023-07-13T04:52:17;96242.16;;;20.29;76.57
12757;BME280;31601;48.042;12.240;2023-07-13T04:54:44;96245.41;;;20.14;76.22
12757;BME280;31601;48.042;12.240;2023-07-13T04:57:10;96242.22;;;20.34;75.65
12757;BME280;31601;48.042;12.240;2023-07-13T04:59:36;96236.16;;;20.38;75.12
12757;BME280;31601;48.042;12.240;2023-07-13T05:02:04;96247.94;;;20.43;75.36
12757;BME280;31601;48.042;12.240;2023-07-13T05:04:31;96252.19;;;20.61;75.25
12757;BME280;31601;48.042;12.240;2023-07-13T05:06:58;96252.28;;;20.66;75.00
12757;BME280;31601;48.042;12.240;2023-07-13T05:09:25;96250.28;;;20.78;74.22
12757;BME280;31601;48.042;12.240;2023-07-13T05:11:52;96251.34;;;20.77;74.53
12757;BME280;31601;48.042;12.240;2023-07-13T05:14:18;96255.06;;;20.76;74.88
12757;BME280;31601;48.042;12.240;2023-07-13T05:16:45;96258.03;;;20.80;74.60
12757;BME280;31601;48.042;12.240;2023-07-13T05:19:12;96259.81;;;20.74;74.57
12757;BME280;31601;48.042;12.240;2023-07-13T05:21:39;96268.41;;;20.76;74.26
12757;BME280;31601;48.042;12.240;2023-07-13T05:24:06;96274.38;;;20.66;74.62
12757;BME280;31601;48.042;12.240;2023-07-13T05:26:32;96272.06;;;20.70;75.25
12757;BME280;31601;48.042;12.240;2023-07-13T05:28:59;96267.66;;;20.81;74.67
12757;BME280;31601;48.042;12.240;2023-07-13T05:31:25;96267.91;;;20.79;74.54
12757;BME280;31601;48.042;12.240;2023-07-13T05:33:51;96271.63;;;20.78;74.94
12757;BME280;31601;48.042;12.240;2023-07-13T05:36:19;96267.72;;;20.86;74.29
12757;BME280;31601;48.042;12.240;2023-07-13T05:38:46;96272.78;;;20.87;74.30
12757;BME280;31601;48.042;12.240;2023-07-13T05:41:12;96282.97;;;20.90;74.03
12757;BME280;31601;48.042;12.240;2023-07-13T05:43:38;96277.50;;;21.02;73.59
12757;BME280;31601;48.042;12.240;2023-07-13T05:46:05;96270.34;;;21.08;73.33
12757;BME280;31601;48.042;12.240;2023-07-13T05:48:31;96273.06;;;21.13;73.25
12757;BME280;31601;48.042;12.240;2023-07-13T05:50:58;96273.06;;;21.13;73.00
12757;BME280;31601;48.042;12.240;2023-07-13T05:53:26;96271.41;;;21.29;72.77
12757;BME280;31601;48.042;12.240;2023-07-13T05:55:54;96265.81;;;21.31;72.31
12757;BME280;31601;48.042;12.240;2023-07-13T05:58:21;96274.34;;;21.33;72.11
12757;BME280;31601;48.042;12.240;2023-07-13T06:00:48;96274.81;;;21.24;71.79
12757;BME280;31601;48.042;12.240;2023-07-13T06:03:15;96282.31;;;21.27;71.80
12757;BME280;31601;48.042;12.240;2023-07-13T06:05:41;96279.91;;;21.26;72.36
12757;BME280;31601;48.042;12.240;2023-07-13T06:08:08;96282.63;;;21.31;72.08
12757;BME280;31601;48.042;12.240;2023-07-13T06:10:36;96290.56;;;21.26;72.59
12757;BME280;31601;48.042;12.240;2023-07-13T06:13:03;96291.81;;;21.18;71.76
12757;BME280;31601;48.042;12.240;2023-07-13T06:15:30;96280.25;;;21.35;72.12
12757;BME280;31601;48.042;12.240;2023-07-13T06:17:56;96276.97;;;21.50;71.48
12757;BME280;31601;48.042;12.240;2023-07-13T06:20:22;96277.44;;;21.46;71.36
12757;BME280;31601;48.042;12.240;2023-07-13T06:22:49;96273.31;;;21.61;71.13
12757;BME280;31601;48.042;12.240;2023-07-13T06:25:15;96283.19;;;21.60;71.00
12757;BME280;31601;48.042;12.240;2023-07-13T06:27:44;96288.56;;;21.66;70.57
12757;BME280;31601;48.042;12.240;2023-07-13T06:30:11;96289.03;;;21.57;70.65
12757;BME280;31601;48.042;12.240;2023-07-13T06:32:38;96285.38;;;21.63;71.09
12757;BME280;31601;48.042;12.240;2023-07-13T06:35:05;96298.09;;;21.56;70.97
12757;BME280;31601;48.042;12.240;2023-07-13T06:37:32;96306.22;;;21.67;70.09
12757;BME280;31601;48.042;12.240;2023-07-13T06:39:58;96304.19;;;21.79;70.05
12757;BME280;31601;48.042;12.240;2023-07-13T06:42:25;96307.25;;;21.93;69.93
12757;BME280;31601;48.042;12.240;2023-07-13T06:44:52;96308.66;;;22.00;69.41
12757;BME280;31601;48.042;12.240;2023-07-13T06:47:19;96307.13;;;22.10;68.97
12757;BME280;31601;48.042;12.240;2023-07-13T06:49:45;96311.34;;;22.33;68.02
12757;BME280;31601;48.042;12.240;2023-07-13T06:52:12;96304.22;;;22.49;66.79
12757;BME280;31601;48.042;12.240;2023-07-13T06:54:39;96314.53;;;22.73;66.67
12757;BME280;31601;48.042;12.240;2023-07-13T06:57:05;96309.78;;;22.90;65.25
12757;BME280;31601;48.042;12.240;2023-07-13T06:59:32;96315.03;;;23.17;63.93
12757;BME280;31601;48.042;12.240;2023-07-13T07:02:00;96315.34;;;23.31;63.73
12757;BME280;31601;48.042;12.240;2023-07-13T07:04:26;96326.09;;;23.47;62.95
12757;BME280;31601;48.042;12.240;2023-07-13T07:06:54;96327.19;;;23.56;62.93
12757;BME280;31601;48.042;12.240;2023-07-13T07:09:20;96322.09;;;23.54;62.38
12757;BME280;31601;48.042;12.240;2023-07-13T07:11:47;96320.06;;;23.14;63.58
12757;BME280;31601;48.042;12.240;2023-07-13T07:14:13;96313.47;;;23.32;62.79
12757;BME280;31601;48.042;12.240;2023-07-13T07:16:39;96318.28;;;23.40;63.36
12757;BME280;31601;48.042;12.240;2023-07-13T07:19:07;96320.22;;;23.60;62.37
12757;BME280;31601;48.042;12.240;2023-07-13T07:21:34;96321.00;;;23.55;62.22
12757;BME280;31601;48.042;12.240;2023-07-13T07:24:00;96327.19;;;23.66;62.37
12757;BME280;31601;48.042;12.240;2023-07-13T07:26:28;96321.91;;;23.87;62.16
12757;BME280;31601;48.042;12.240;2023-07-13T07:28:54;96317.06;;;23.84;62.44
12757;BME280;31601;48.042;12.240;2023-07-13T07:31:21;96313.06;;;23.97;60.52
12757;BME280;31601;48.042;12.240;2023-07-13T07:33:47;96326.72;;;23.85;61.02
12757;BME280;31601;48.042;12.240;2023-07-13T07:36:16;96324.78;;;23.80;63.85
12757;BME280;31601;48.042;12.240;2023-07-13T07:38:42;96330.69;;;23.72;62.76
12757;BME280;31601;48.042;12.240;2023-07-13T07:41:10;96334.78;;;24.10;61.79
12757;BME280;31601;48.042;12.240;2023-07-13T07:43:37;96340.34;;;23.78;60.71
12757;BME280;31601;48.042;12.240;2023-07-13T07:46:03;96338.47;;;23.73;61.30
12757;BME280;31601;48.042;12.240;2023-07-13T07:48:30;96343.00;;;23.57;60.69
12757;BME280;31601;48.042;12.240;2023-07-13T07:50:56;96335.03;;;24.09;60.11
12757;BME280;31601;48.042;12.240;2023-07-13T07:53:24;96338.94;;;23.55;59.02
12757;BME280;31601;48.042;12.240;2023-07-13T07:55:51;96348.81;;;23.39;61.14
12757;BME280;31601;48.042;12.240;2023-07-13T07:58:17;96351.78;;;23.42;59.10
12757;BME280;31601;48.042;12.240;2023-07-13T08:00:44;96357.19;;;23.63;59.37
12757;BME280;31601;48.042;12.240;2023-07-13T08:03:10;96354.00;;;23.71;60.02
12757;BME280;31601;48.042;12.240;2023-07-13T08:05:37;96352.38;;;23.75;60.60
12757;BME280;31601;48.042;12.240;2023-07-13T08:08:03;96355.06;;;23.75;60.52
12757;BME280;31601;48.042;12.240;2023-07-13T08:10:34;96361.16;;;23.50;59.58
12757;BME280;31601;48.042;12.240;2023-07-13T08:13:01;96376.13;;;23.46;60.36
12757;BME280;31601;48.042;12.240;2023-07-13T08:15:27;96367.50;;;23.23;60.46
12757;BME280;31601;48.042;12.240;2023-07-13T08:17:54;96371.69;;;23.09;61.62
12757;BME280;31601;48.042;12.240;2023-07-13T08:20:20;96375.94;;;23.05;61.66
12757;BME280;31601;48.042;12.240;2023-07-13T08:22:47;96375.34;;;22.93;62.57
12757;BME280;31601;48.042;12.240;2023-07-13T08:25:13;96377.69;;;22.84;63.26
12757;BME280;31601;48.042;12.240;2023-07-13T08:27:41;96371.25;;;22.80;63.48
12757;BME280;31601;48.042;12.240;2023-07-13T08:30:08;96372.94;;;22.96;63.03
12757;BME280;31601;48.042;12.240;2023-07-13T08:32:36;96369.41;;;22.85;63.77
12757;BME280;31601;48.042;12.240;2023-07-13T08:35:03;96367.34;;;22.98;63.59
12757;BME280;31601;48.042;12.240;2023-07-13T08:37:29;96373.19;;;22.89;64.03
12757;BME280;31601;48.042;12.240;2023-07-13T08:39:56;96372.03;;;23.18;62.62
12757;BME280;31601;48.042;12.240;2023-07-13T08:42:31;96375.53;;;23.23;61.10
12757;BME280;31601;48.042;12.240;2023-07-13T08:45:07;96371.84;;;22.92;61.29
12757;BME280;31601;48.042;12.240;2023-07-13T08:47:39;96378.25;;;22.86;61.17
12757;BME280;31601;48.042;12.240;2023-07-13T08:50:10;96380.34;;;22.79;60.94
12757;BME280;31601;48.042;12.240;2023-07-13T08:52:40;96375.09;;;22.57;62.60
12757;BME280;31601;48.042;12.240;2023-07-13T08:55:13;96380.28;;;23.11;62.29
12757;BME280;31601;48.042;12.240;2023-07-13T08:57:42;96387.34;;;22.85;60.58
12757;BME280;31601;48.042;12.240;2023-07-13T09:00:12;96387.78;;;22.71;60.58
12757;BME280;31601;48.042;12.240;2023-07-13T09:02:45;96404.50;;;22.51;60.44
12757;BME280;31601;48.042;12.240;2023-07-13T09:05:14;96399.28;;;23.10;59.42
12757;BME280;31601;48.042;12.240;2023-07-13T09:07:59;96391.66;;;23.39;59.48
12757;BME280;31601;48.042;12.240;2023-07-13T09:10:30;96389.84;;;23.02;59.79
12757;BME280;31601;48.042;12.240;2023-07-13T09:13:06;96386.59;;;23.48;60.06
12757;BME280;31601;48.042;12.240;2023-07-13T09:15:41;96389.19;;;23.27;58.72
12757;BME280;31601;48.042;12.240;2023-07-13T09:18:11;96391.34;;;23.30;60.19
12757;BME280;31601;48.042;12.240;2023-07-13T09:20:43;96400.59;;;23.65;60.34
12757;BME280;31601;48.042;12.240;2023-07-13T09:23:14;96410.66;;;23.42;59.65
12757;BME280;31601;48.042;12.240;2023-07-13T09:25:45;96412.50;;;23.32;60.11
12757;BME280;31601;48.042;12.240;2023-07-13T09:28:16;96408.13;;;22.73;62.09
12757;BME280;31601;48.042;12.240;2023-07-13T09:30:51;96406.47;;;22.66;62.18
12757;BME280;31601;48.042;12.240;2023-07-13T09:33:18;96406.78;;;22.38;63.42
12757;BME280;31601;48.042;12.240;2023-07-13T09:35:45;96403.31;;;22.75;62.21
12757;BME280;31601;48.042;12.240;2023-07-13T09:38:13;96408.16;;;22.78;62.47
12757;BME280;31601;48.042;12.240;2023-07-13T09:40:58;96406.41;;;22.56;64.68
12757;BME280;31601;48.042;12.240;2023-07-13T09:43:26;96412.47;;;22.19;64.14
12757;BME280;31601;48.042;12.240;2023-07-13T09:45:55;96420.97;;;22.11;64.45
12757;BME280;31601;48.042;12.240;2023-07-13T09:48:21;96406.63;;;22.22;63.63
12757;BME280;31601;48.042;12.240;2023-07-13T09:50:54;96408.19;;;22.18;64.54
12757;BME280;31601;48.042;12.240;2023-07-13T09:53:21;96420.66;;;22.34;64.31
12757;BME280;31601;48.042;12.240;2023-07-13T09:55:48;96420.81;;;21.95;62.76
12757;BME280;31601;48.042;12.240;2023-07-13T09:58:17;96411.38;;;22.42;61.53
12757;BME280;31601;48.042;12.240;2023-07-13T10:00:57;96417.09;;;22.29;59.51
12757;BME280;31601;48.042;12.240;2023-07-13T10:03:25;96414.06;;;22.47;61.32
12757;BME280;31601;48.042;12.240;2023-07-13T10:05:53;96413.88;;;22.27;62.03
12757;BME280;31601;48.042;12.240;2023-07-13T10:08:24;96411.75;;;22.29;62.09
12757;BME280;31601;48.042;12.240;2023-07-13T10:10:57;96421.22;;;22.09;62.05
12757;BME280;31601;48.042;12.240;2023-07-13T10:13:29;96415.56;;;22.33;61.26
12757;BME280;31601;48.042;12.240;2023-07-13T10:15:58;96433.75;;;22.09;61.23
12757;BME280;31601;48.042;12.240;2023-07-13T10:18:26;96427.13;;;22.16;61.52
12757;BME280;31601;48.042;12.240;2023-07-13T10:20:54;96427.47;;;22.20;61.89
12757;BME280;31601;48.042;12.240;2023-07-13T10:23:27;96438.09;;;21.88;60.68
12757;BME280;31601;48.042;12.240;2023-07-13T10:25:59;96442.94;;;21.91;62.20
12757;BME280;31601;48.042;12.240;2023-07-13T10:28:29;96443.66;;;22.35;61.17
12757;BME280;31601;48.042;12.240;2023-07-13T10:30:59;96445.13;;;22.53;60.34
12757;BME280;31601;48.042;12.240;2023-07-13T10:33:27;96448.44;;;22.66;59.00
12757;BME280;31601;48.042;12.240;2023-07-13T10:35:57;96443.31;;;22.59;58.10
12757;BME280;31601;48.042;12.240;2023-07-13T10:38:28;96441.44;;;22.60;58.37
12757;BME280;31601;48.042;12.240;2023-07-13T10:40:57;96445.50;;;22.35;58.53
12757;BME280;31601;48.042;12.240;2023-07-13T10:43:27;96449.28;;;22.71;58.98
12757;BME280;31601;48.042;12.240;2023-07-13T10:45:57;96449.19;;;22.56;59.17
12757;BME280;31601;48.042;12.240;2023-07-13T10:48:26;96453.53;;;22.35;59.46
12757;BME280;31601;48.042;12.240;2023-07-13T10:50:55;96463.75;;;22.16;57.43
12757;BME280;31601;48.042;12.240;2023-07-13T10:53:29;96461.00;;;22.33;56.90
12757;BME280;31601;48.042;12.240;2023-07-13T10:55:59;96458.56;;;22.59;57.70
12757;BME280;31601;48.042;12.240;2023-07-13T10:58:32;96455.38;;;22.62;57.45
12757;BME280;31601;48.042;12.240;2023-07-13T11:01:06;96453.97;;;22.54;57.65
12757;BME280;31601;48.042;12.240;2023-07-13T11:03:35;96460.31;;;23.13;56.58
12757;BME280;31601;48.042;12.240;2023-07-13T11:06:08;96460.50;;;23.54;56.74
12757;BME280;31601;48.042;12.240;2023-07-13T11:08:36;96464.22;;;23.48;57.06
12757;BME280;31601;48.042;12.240;2023-07-13T11:13:59;96467.72;;;24.22;54.25
12757;BME280;31601;48.042;12.240;2023-07-13T11:16:43;96470.94;;;24.13;54.41
12757;BME280;31601;48.042;12.240;2023-07-13T11:19:40;96459.13;;;23.99;52.40
12757;BME280;31601;48.042;12.240;2023-07-13T11:22:13;96458.41;;;24.71;51.64
12757;BME280;31601;48.042;12.240;2023-07-13T11:24:52;96457.28;;;25.23;50.82
12757;BME280;31601;48.042;12.240;2023-07-13T11:27:27;96451.28;;;25.62;48.58
12757;BME280;31601;48.042;12.240;2023-07-13T11:32:52;96446.19;;;25.55;47.38
12757;BME280;31601;48.042;12.240;2023-07-13T11:35:32;96443.44;;;25.71;47.83
12757;BME280;31601;48.042;12.240;2023-07-13T11:38:00;96442.44;;;25.57;46.81
12757;BME280;31601;48.042;12.240;2023-07-13T11:40:28;96439.34;;;25.84;46.33
12757;BME280;31601;48.042;12.240;2023-07-13T11:42:59;96435.34;;;25.76;47.30
12757;BME280;31601;48.042;12.240;2023-07-13T11:45:25;96428.03;;;25.11;45.29
12757;BME280;31601;48.042;12.240;2023-07-13T11:47:54;96424.78;;;25.35;46.17
12757;BME280;31601;48.042;12.240;2023-07-13T11:50:24;96424.00;;;25.14;46.80
12757;BME280;31601;48.042;12.240;2023-07-13T11:52:52;96419.16;;;25.21;48.10
12757;BME280;31601;48.042;12.240;2023-07-13T11:55:22;96427.22;;;25.36;46.86
12757;BME280;31601;48.042;12.240;2023-07-13T11:57:51;96422.00;;;25.61;47.27
12757;BME280;31601;48.042;12.240;2023-07-13T12:00:23;96426.78;;;25.74;47.23
12757;BME280;31601;48.042;12.240;2023-07-13T12:02:55;96413.31;;;25.79;46.99
12757;BME280;31601;48.042;12.240;2023-07-13T12:05:22;96413.41;;;25.59;47.13
12757;BME280;31601;48.042;12.240;2023-07-13T12:07:50;96408.03;;;25.59;44.82
12757;BME280;31601;48.042;12.240;2023-07-13T12:10:19;96402.56;;;25.79;46.06
12757;BME280;31601;48.042;12.240;2023-07-13T12:12:47;96399.88;;;25.79;45.65
12757;BME280;31601;48.042;12.240;2023-07-13T12:15:14;96396.38;;;25.79;44.62
12757;BME280;31601;48.042;12.240;2023-07-13T12:17:41;96385.31;;;25.90;45.43
12757;BME280;31601;48.042;12.240;2023-07-13T12:20:20;96389.94;;;25.74;45.16
12757;BME280;31601;48.042;12.240;2023-07-13T12:22:47;96389.00;;;25.50;45.26
12757;BME280;31601;48.042;12.240;2023-07-13T12:25:15;96389.94;;;25.09;46.47
12757;BME280;31601;48.042;12.240;2023-07-13T12:27:46;96377.91;;;24.96;42.54
12757;BME280;31601;48.042;12.240;2023-07-13T12:30:28;96391.78;;;25.29;44.63
12757;BME280;31601;48.042;12.240;2023-07-13T12:32:57;96390.09;;;25.44;45.84
12757;BME280;31601;48.042;12.240;2023-07-13T12:35:28;96384.06;;;24.97;42.44
12757;BME280;31601;48.042;12.240;2023-07-13T12:37:59;96392.13;;;24.04;43.25
12757;BME280;31601;48.042;12.240;2023-07-13T12:40:30;96378.75;;;24.66;43.22
12757;BME280;31601;48.042;12.240;2023-07-13T12:42:58;96375.72;;;25.03;43.44
12757;BME280;31601;48.042;12.240;2023-07-13T12:45:27;96371.13;;;25.14;45.43
12757;BME280;31601;48.042;12.240;2023-07-13T12:47:55;96365.75;;;25.14;44.37
12757;BME280;31601;48.042;12.240;2023-07-13T12:50:30;96367.31;;;25.36;43.53
12757;BME280;31601;48.042;12.240;2023-07-13T12:53:02;96371.50;;;25.58;44.92
12757;BME280;31601;48.042;12.240;2023-07-13T12:55:41;96366.25;;;25.22;41.52
12757;BME280;31601;48.042;12.240;2023-07-13T12:58:16;96373.28;;;25.12;43.36
12757;BME280;31601;48.042;12.240;2023-07-13T13:00:49;96362.13;;;25.55;43.37
12757;BME280;31601;48.042;12.240;2023-07-13T13:03:22;96362.84;;;25.71;44.80